sensor_id;sensor_type;location;lat;lon;timestamp;P1;durP1;ratioP1;P2;durP2;ratioP2
22965;SDS011;11649;48.090;9.754;2022-07-21T00:00:54;16.65;;;14.95;;
22965;SDS011;11649;48.090;9.754;2022-07-21T00:03:21;22.50;;;14.02;;
22965;SDS011;11649;48.090;9.754;2022-07-21T00:05:48;15.70;;;14.10;;
22965;SDS011;11649;48.090;9.754;2022-07-21T00:08:15;16.23;;;14.40;;
22965;SDS011;11649;48.090;9.754;2022-07-21T00:10:42;16.60;;;14.88;;
22965;SDS011;11649;48.090;9.754;2022-07-21T00:13:08;16.80;;;13.63;;
22965;SDS011;11649;48.090;9.754;2022-07-21T00:15:35;21.58;;;15.18;;
22965;SDS011;11649;48.090;9.754;2022-07-21T00:18:03;18.17;;;15.90;;
22965;SDS011;11649;48.090;9.754;2022-07-21T00:20:30;18.42;;;14.38;;
22965;SDS011;11649;48.090;9.754;2022-07-21T00:22:57;17.60;;;14.02;;
22965;SDS011;11649;48.090;9.754;2022-07-21T00:25:25;17.40;;;14.93;;
22965;SDS011;11649;48.090;9.754;2022-07-21T00:27:59;16.83;;;14.95;;
22965;SDS011;11649;48.090;9.754;2022-07-21T00:30:26;18.13;;;14.70;;
22965;SDS011;11649;48.090;9.754;2022-07-21T00:32:53;16.83;;;15.02;;
22965;SDS011;11649;48.090;9.754;2022-07-21T00:35:19;18.52;;;15.07;;
22965;SDS011;11649;48.090;9.754;2022-07-21T00:37:46;16.95;;;13.43;;
22965;SDS011;11649;48.090;9.754;2022-07-21T00:40:13;16.30;;;14.27;;
22965;SDS011;11649;48.090;9.754;2022-07-21T00:42:42;15.07;;;13.02;;
22965;SDS011;11649;48.090;9.754;2022-07-21T00:45:10;17.25;;;14.48;;
22965;SDS011;11649;48.090;9.754;2022-07-21T00:47:38;16.42;;;14.60;;
22965;SDS011;11649;48.090;9.754;2022-07-21T00:50:07;16.30;;;14.55;;
22965;SDS011;11649;48.090;9.754;2022-07-21T00:52:36;15.48;;;13.88;;
22965;SDS011;11649;48.090;9.754;2022-07-21T00:55:04;15.82;;;13.93;;
22965;SDS011;11649;48.090;9.754;2022-07-21T00:57:32;16.73;;;15.00;;
22965;SDS011;11649;48.090;9.754;2022-07-21T00:59:59;15.98;;;14.10;;
22965;SDS011;11649;48.090;9.754;2022-07-21T01:02:26;17.10;;;15.35;;
22965;SDS011;11649;48.090;9.754;2022-07-21T01:04:54;18.05;;;13.50;;
22965;SDS011;11649;48.090;9.754;2022-07-21T01:07:21;16.50;;;14.80;;
22965;SDS011;11649;48.090;9.754;2022-07-21T01:09:48;19.75;;;13.98;;
22965;SDS011;11649;48.090;9.754;2022-07-21T01:12:16;19.55;;;14.85;;
22965;SDS011;11649;48.090;9.754;2022-07-21T01:14:43;16.88;;;14.68;;
22965;SDS011;11649;48.090;9.754;2022-07-21T01:17:10;17.33;;;15.15;;
22965;SDS011;11649;48.090;9.754;2022-07-21T01:19:37;19.17;;;15.65;;
22965;SDS011;11649;48.090;9.754;2022-07-21T01:22:04;19.20;;;16.15;;
22965;SDS011;11649;48.090;9.754;2022-07-21T01:24:32;19.40;;;15.80;;
22965;SDS011;11649;48.090;9.754;2022-07-21T01:26:59;17.83;;;15.65;;
22965;SDS011;11649;48.090;9.754;2022-07-21T01:29:26;19.92;;;16.75;;
22965;SDS011;11649;48.090;9.754;2022-07-21T01:31:53;19.30;;;16.50;;
22965;SDS011;11649;48.090;9.754;2022-07-21T01:34:20;19.08;;;16.10;;
22965;SDS011;11649;48.090;9.754;2022-07-21T01:36:46;19.70;;;16.67;;
22965;SDS011;11649;48.090;9.754;2022-07-21T01:39:13;17.83;;;15.68;;
22965;SDS011;11649;48.090;9.754;2022-07-21T01:41:59;25.00;;;17.10;;
22965;SDS011;11649;48.090;9.754;2022-07-21T01:44:27;19.77;;;15.75;;
22965;SDS011;11649;48.090;9.754;2022-07-21T01:46:54;18.50;;;16.10;;
22965;SDS011;11649;48.090;9.754;2022-07-21T01:49:21;17.05;;;15.13;;
22965;SDS011;11649;48.090;9.754;2022-07-21T01:51:49;17.95;;;16.05;;
22965;SDS011;11649;48.090;9.754;2022-07-21T01:54:16;19.60;;;14.88;;
22965;SDS011;11649;48.090;9.754;2022-07-21T01:56:49;20.35;;;17.13;;
22965;SDS011;11649;48.090;9.754;2022-07-21T01:59:16;17.08;;;15.10;;
22965;SDS011;11649;48.090;9.754;2022-07-21T02:01:44;19.40;;;16.90;;
22965;SDS011;11649;48.090;9.754;2022-07-21T02:04:11;19.35;;;16.95;;
22965;SDS011;11649;48.090;9.754;2022-07-21T02:06:38;21.00;;;17.30;;
22965;SDS011;11649;48.090;9.754;2022-07-21T02:09:05;23.50;;;16.88;;
22965;SDS011;11649;48.090;9.754;2022-07-21T02:11:33;19.48;;;16.25;;
22965;SDS011;11649;48.090;9.754;2022-07-21T02:14:00;25.48;;;18.88;;
22965;SDS011;11649;48.090;9.754;2022-07-21T02:16:27;22.40;;;18.17;;
22965;SDS011;11649;48.090;9.754;2022-07-21T02:18:55;20.48;;;18.48;;
22965;SDS011;11649;48.090;9.754;2022-07-21T02:21:23;23.17;;;18.73;;
22965;SDS011;11649;48.090;9.754;2022-07-21T02:23:50;21.13;;;18.23;;
22965;SDS011;11649;48.090;9.754;2022-07-21T02:26:17;21.70;;;18.83;;
22965;SDS011;11649;48.090;9.754;2022-07-21T02:28:44;21.42;;;19.23;;
22965;SDS011;11649;48.090;9.754;2022-07-21T02:31:10;26.30;;;19.05;;
22965;SDS011;11649;48.090;9.754;2022-07-21T02:33:37;23.80;;;17.70;;
22965;SDS011;11649;48.090;9.754;2022-07-21T02:36:05;21.98;;;18.27;;
22965;SDS011;11649;48.090;9.754;2022-07-21T02:38:32;23.02;;;18.52;;
22965;SDS011;11649;48.090;9.754;2022-07-21T02:40:59;23.38;;;19.98;;
22965;SDS011;11649;48.090;9.754;2022-07-21T02:43:26;21.98;;;19.77;;
22965;SDS011;11649;48.090;9.754;2022-07-21T02:45:52;25.55;;;19.95;;
22965;SDS011;11649;48.090;9.754;2022-07-21T02:48:19;22.98;;;20.45;;
22965;SDS011;11649;48.090;9.754;2022-07-21T02:50:46;25.77;;;22.42;;
22965;SDS011;11649;48.090;9.754;2022-07-21T02:53:14;29.80;;;22.35;;
22965;SDS011;11649;48.090;9.754;2022-07-21T02:55:46;28.92;;;23.23;;
22965;SDS011;11649;48.090;9.754;2022-07-21T02:58:14;26.90;;;22.35;;
22965;SDS011;11649;48.090;9.754;2022-07-21T03:01:01;27.67;;;22.30;;
22965;SDS011;11649;48.090;9.754;2022-07-21T03:03:31;27.05;;;22.42;;
22965;SDS011;11649;48.090;9.754;2022-07-21T03:06:00;26.25;;;23.45;;
22965;SDS011;11649;48.090;9.754;2022-07-21T03:08:27;26.52;;;23.27;;
22965;SDS011;11649;48.090;9.754;2022-07-21T03:10:54;27.45;;;21.23;;
22965;SDS011;11649;48.090;9.754;2022-07-21T03:13:21;26.95;;;21.48;;
22965;SDS011;11649;48.090;9.754;2022-07-21T03:15:49;23.88;;;21.20;;
22965;SDS011;11649;48.090;9.754;2022-07-21T03:18:16;31.33;;;22.55;;
22965;SDS011;11649;48.090;9.754;2022-07-21T03:20:43;27.35;;;22.25;;
22965;SDS011;11649;48.090;9.754;2022-07-21T03:23:10;26.70;;;22.88;;
22965;SDS011;11649;48.090;9.754;2022-07-21T03:25:37;24.35;;;21.67;;
22965;SDS011;11649;48.090;9.754;2022-07-21T03:28:04;26.23;;;22.83;;
22965;SDS011;11649;48.090;9.754;2022-07-21T03:30:33;29.08;;;23.00;;
22965;SDS011;11649;48.090;9.754;2022-07-21T03:33:00;27.60;;;23.02;;
22965;SDS011;11649;48.090;9.754;2022-07-21T03:35:27;25.15;;;21.77;;
22965;SDS011;11649;48.090;9.754;2022-07-21T03:37:57;27.83;;;24.20;;
22965;SDS011;11649;48.090;9.754;2022-07-21T03:40:27;30.85;;;24.30;;
22965;SDS011;11649;48.090;9.754;2022-07-21T03:42:57;30.30;;;25.00;;
22965;SDS011;11649;48.090;9.754;2022-07-21T03:45:26;30.40;;;25.92;;
22965;SDS011;11649;48.090;9.754;2022-07-21T03:47:57;29.10;;;24.33;;
22965;SDS011;11649;48.090;9.754;2022-07-21T03:50:28;29.17;;;23.73;;
22965;SDS011;11649;48.090;9.754;2022-07-21T03:52:56;30.92;;;24.10;;
22965;SDS011;11649;48.090;9.754;2022-07-21T03:55:23;34.53;;;27.88;;
22965;SDS011;11649;48.090;9.754;2022-07-21T03:57:54;31.77;;;25.70;;
22965;SDS011;11649;48.090;9.754;2022-07-21T04:00:30;36.67;;;29.77;;
22965;SDS011;11649;48.090;9.754;2022-07-21T04:02:59;38.78;;;29.10;;
22965;SDS011;11649;48.090;9.754;2022-07-21T04:05:27;32.58;;;29.25;;
22965;SDS011;11649;48.090;9.754;2022-07-21T04:07:54;37.28;;;29.27;;
22965;SDS011;11649;48.090;9.754;2022-07-21T04:10:23;34.30;;;28.92;;
22965;SDS011;11649;48.090;9.754;2022-07-21T04:12:53;33.83;;;27.42;;
22965;SDS011;11649;48.090;9.754;2022-07-21T04:15:21;33.88;;;27.27;;
22965;SDS011;11649;48.090;9.754;2022-07-21T04:17:48;35.60;;;28.83;;
22965;SDS011;11649;48.090;9.754;2022-07-21T04:20:16;32.58;;;27.75;;
22965;SDS011;11649;48.090;9.754;2022-07-21T04:22:44;30.88;;;27.42;;
22965;SDS011;11649;48.090;9.754;2022-07-21T04:25:12;38.80;;;30.10;;
22965;SDS011;11649;48.090;9.754;2022-07-21T04:27:40;32.60;;;29.00;;
22965;SDS011;11649;48.090;9.754;2022-07-21T04:30:09;33.78;;;27.92;;
22965;SDS011;11649;48.090;9.754;2022-07-21T04:32:37;32.30;;;26.58;;
22965;SDS011;11649;48.090;9.754;2022-07-21T04:35:05;30.30;;;27.05;;
22965;SDS011;11649;48.090;9.754;2022-07-21T04:37:33;31.27;;;27.88;;
22965;SDS011;11649;48.090;9.754;2022-07-21T04:40:02;32.17;;;27.05;;
22965;SDS011;11649;48.090;9.754;2022-07-21T04:42:30;29.45;;;25.92;;
22965;SDS011;11649;48.090;9.754;2022-07-21T04:44:59;31.92;;;26.50;;
22965;SDS011;11649;48.090;9.754;2022-07-21T04:47:25;31.35;;;25.85;;
22965;SDS011;11649;48.090;9.754;2022-07-21T04:49:52;31.98;;;25.45;;
22965;SDS011;11649;48.090;9.754;2022-07-21T04:52:19;34.63;;;26.25;;
22965;SDS011;11649;48.090;9.754;2022-07-21T04:54:46;31.48;;;27.70;;
22965;SDS011;11649;48.090;9.754;2022-07-21T04:57:13;37.95;;;29.75;;
22965;SDS011;11649;48.090;9.754;2022-07-21T04:59:40;32.28;;;27.80;;
22965;SDS011;11649;48.090;9.754;2022-07-21T05:02:06;33.53;;;28.80;;
22965;SDS011;11649;48.090;9.754;2022-07-21T05:04:33;34.10;;;29.40;;
22965;SDS011;11649;48.090;9.754;2022-07-21T05:07:00;31.70;;;27.67;;
22965;SDS011;11649;48.090;9.754;2022-07-21T05:09:27;38.85;;;30.70;;
22965;SDS011;11649;48.090;9.754;2022-07-21T05:11:54;34.20;;;29.02;;
22965;SDS011;11649;48.090;9.754;2022-07-21T05:14:21;34.85;;;29.27;;
22965;SDS011;11649;48.090;9.754;2022-07-21T05:16:48;32.47;;;28.02;;
22965;SDS011;11649;48.090;9.754;2022-07-21T05:19:14;32.92;;;27.50;;
22965;SDS011;11649;48.090;9.754;2022-07-21T05:21:41;32.38;;;26.45;;
22965;SDS011;11649;48.090;9.754;2022-07-21T05:24:08;34.40;;;27.20;;
22965;SDS011;11649;48.090;9.754;2022-07-21T05:26:35;29.98;;;26.80;;
22965;SDS011;11649;48.090;9.754;2022-07-21T05:29:02;30.80;;;27.45;;
22965;SDS011;11649;48.090;9.754;2022-07-21T05:31:29;32.40;;;26.60;;
22965;SDS011;11649;48.090;9.754;2022-07-21T05:33:56;28.05;;;25.05;;
22965;SDS011;11649;48.090;9.754;2022-07-21T05:36:23;28.50;;;25.38;;
22965;SDS011;11649;48.090;9.754;2022-07-21T05:38:50;29.70;;;25.33;;
22965;SDS011;11649;48.090;9.754;2022-07-21T05:41:17;26.88;;;23.98;;
22965;SDS011;11649;48.090;9.754;2022-07-21T05:43:44;28.67;;;25.48;;
22965;SDS011;11649;48.090;9.754;2022-07-21T05:46:11;31.95;;;28.52;;
22965;SDS011;11649;48.090;9.754;2022-07-21T05:48:38;30.30;;;25.30;;
22965;SDS011;11649;48.090;9.754;2022-07-21T05:51:06;27.88;;;24.88;;
22965;SDS011;11649;48.090;9.754;2022-07-21T05:53:38;27.55;;;24.70;;
22965;SDS011;11649;48.090;9.754;2022-07-21T05:56:04;31.05;;;24.27;;
22965;SDS011;11649;48.090;9.754;2022-07-21T05:58:33;30.70;;;26.58;;
22965;SDS011;11649;48.090;9.754;2022-07-21T06:01:00;28.63;;;25.33;;
22965;SDS011;11649;48.090;9.754;2022-07-21T06:03:43;28.70;;;24.38;;
22965;SDS011;11649;48.090;9.754;2022-07-21T06:06:17;26.13;;;22.55;;
22965;SDS011;11649;48.090;9.754;2022-07-21T06:08:45;30.65;;;26.67;;
22965;SDS011;11649;48.090;9.754;2022-07-21T06:11:15;28.42;;;22.23;;
22965;SDS011;11649;48.090;9.754;2022-07-21T06:13:43;25.75;;;22.58;;
22965;SDS011;11649;48.090;9.754;2022-07-21T06:16:10;23.88;;;21.27;;
22965;SDS011;11649;48.090;9.754;2022-07-21T06:18:37;27.02;;;21.95;;
22965;SDS011;11649;48.090;9.754;2022-07-21T06:21:04;27.20;;;21.15;;
22965;SDS011;11649;48.090;9.754;2022-07-21T06:23:31;23.70;;;20.38;;
22965;SDS011;11649;48.090;9.754;2022-07-21T06:25:58;25.50;;;20.45;;
22965;SDS011;11649;48.090;9.754;2022-07-21T06:28:25;23.45;;;20.45;;
22965;SDS011;11649;48.090;9.754;2022-07-21T06:30:52;26.02;;;22.20;;
22965;SDS011;11649;48.090;9.754;2022-07-21T06:33:19;27.60;;;20.88;;
22965;SDS011;11649;48.090;9.754;2022-07-21T06:35:46;25.02;;;21.55;;
22965;SDS011;11649;48.090;9.754;2022-07-21T06:38:12;23.17;;;20.75;;
22965;SDS011;11649;48.090;9.754;2022-07-21T06:40:39;23.73;;;19.35;;
22965;SDS011;11649;48.090;9.754;2022-07-21T06:43:09;23.02;;;20.52;;
22965;SDS011;11649;48.090;9.754;2022-07-21T06:45:54;22.88;;;20.48;;
22965;SDS011;11649;48.090;9.754;2022-07-21T06:48:22;22.20;;;19.20;;
22965;SDS011;11649;48.090;9.754;2022-07-21T06:50:53;23.65;;;21.17;;
22965;SDS011;11649;48.090;9.754;2022-07-21T06:53:21;25.17;;;21.50;;
22965;SDS011;11649;48.090;9.754;2022-07-21T06:55:49;21.85;;;19.65;;
22965;SDS011;11649;48.090;9.754;2022-07-21T06:58:25;27.33;;;21.40;;
22965;SDS011;11649;48.090;9.754;2022-07-21T07:00:53;22.63;;;19.63;;
22965;SDS011;11649;48.090;9.754;2022-07-21T07:03:22;21.67;;;19.23;;
22965;SDS011;11649;48.090;9.754;2022-07-21T07:05:50;20.35;;;17.83;;
22965;SDS011;11649;48.090;9.754;2022-07-21T07:08:17;19.40;;;17.27;;
22965;SDS011;11649;48.090;9.754;2022-07-21T07:10:44;23.55;;;19.00;;
22965;SDS011;11649;48.090;9.754;2022-07-21T07:13:12;19.27;;;17.27;;
22965;SDS011;11649;48.090;9.754;2022-07-21T07:16:01;21.38;;;17.13;;
22965;SDS011;11649;48.090;9.754;2022-07-21T07:18:28;15.15;;;13.50;;
22965;SDS011;11649;48.090;9.754;2022-07-21T07:20:55;15.43;;;13.88;;
22965;SDS011;11649;48.090;9.754;2022-07-21T07:23:21;15.98;;;14.27;;
22965;SDS011;11649;48.090;9.754;2022-07-21T07:25:48;15.30;;;13.48;;
22965;SDS011;11649;48.090;9.754;2022-07-21T07:28:16;15.75;;;13.45;;
22965;SDS011;11649;48.090;9.754;2022-07-21T07:30:43;13.20;;;11.80;;
22965;SDS011;11649;48.090;9.754;2022-07-21T07:33:10;13.48;;;12.05;;
22965;SDS011;11649;48.090;9.754;2022-07-21T07:35:36;13.27;;;11.82;;
22965;SDS011;11649;48.090;9.754;2022-07-21T07:38:03;12.85;;;11.55;;
22965;SDS011;11649;48.090;9.754;2022-07-21T07:40:30;14.05;;;12.30;;
22965;SDS011;11649;48.090;9.754;2022-07-21T07:42:57;12.93;;;11.52;;
22965;SDS011;11649;48.090;9.754;2022-07-21T07:45:33;13.50;;;12.15;;
22965;SDS011;11649;48.090;9.754;2022-07-21T07:48:02;13.68;;;12.27;;
22965;SDS011;11649;48.090;9.754;2022-07-21T07:50:29;13.57;;;12.18;;
22965;SDS011;11649;48.090;9.754;2022-07-21T07:52:56;13.48;;;12.07;;
22965;SDS011;11649;48.090;9.754;2022-07-21T07:55:23;14.40;;;12.93;;
22965;SDS011;11649;48.090;9.754;2022-07-21T07:57:50;14.90;;;12.90;;
22965;SDS011;11649;48.090;9.754;2022-07-21T08:00:17;13.98;;;12.23;;
22965;SDS011;11649;48.090;9.754;2022-07-21T08:03:05;14.13;;;12.50;;
22965;SDS011;11649;48.090;9.754;2022-07-21T08:05:32;12.93;;;11.60;;
22965;SDS011;11649;48.090;9.754;2022-07-21T08:07:59;14.98;;;12.23;;
22965;SDS011;11649;48.090;9.754;2022-07-21T08:10:25;15.88;;;13.00;;
22965;SDS011;11649;48.090;9.754;2022-07-21T08:13:13;13.20;;;11.90;;
22965;SDS011;11649;48.090;9.754;2022-07-21T08:15:42;18.55;;;12.73;;
22965;SDS011;11649;48.090;9.754;2022-07-21T08:18:09;12.63;;;11.32;;
22965;SDS011;11649;48.090;9.754;2022-07-21T08:20:37;13.32;;;10.82;;
22965;SDS011;11649;48.090;9.754;2022-07-21T08:23:04;14.55;;;12.27;;
22965;SDS011;11649;48.090;9.754;2022-07-21T08:25:31;11.65;;;10.45;;
22965;SDS011;11649;48.090;9.754;2022-07-21T08:27:58;12.75;;;11.40;;
22965;SDS011;11649;48.090;9.754;2022-07-21T08:30:25;11.73;;;10.10;;
22965;SDS011;11649;48.090;9.754;2022-07-21T08:32:56;13.20;;;11.15;;
22965;SDS011;11649;48.090;9.754;2022-07-21T08:35:24;12.07;;;10.77;;
22965;SDS011;11649;48.090;9.754;2022-07-21T08:37:56;11.60;;;10.43;;
22965;SDS011;11649;48.090;9.754;2022-07-21T08:40:28;11.85;;;10.25;;
22965;SDS011;11649;48.090;9.754;2022-07-21T08:42:57;11.05;;;9.77;;
22965;SDS011;11649;48.090;9.754;2022-07-21T08:45:24;18.08;;;11.00;;
22965;SDS011;11649;48.090;9.754;2022-07-21T08:47:51;12.20;;;9.82;;
22965;SDS011;11649;48.090;9.754;2022-07-21T08:50:20;10.45;;;9.35;;
22965;SDS011;11649;48.090;9.754;2022-07-21T08:52:49;11.35;;;10.13;;
22965;SDS011;11649;48.090;9.754;2022-07-21T08:55:28;12.93;;;10.25;;
22965;SDS011;11649;48.090;9.754;2022-07-21T08:58:00;10.95;;;9.85;;
22965;SDS011;11649;48.090;9.754;2022-07-21T09:00:33;13.60;;;12.13;;
22965;SDS011;11649;48.090;9.754;2022-07-21T09:03:08;13.18;;;11.63;;
22965;SDS011;11649;48.090;9.754;2022-07-21T09:05:41;14.10;;;10.90;;
22965;SDS011;11649;48.090;9.754;2022-07-21T09:08:09;11.27;;;10.07;;
22965;SDS011;11649;48.090;9.754;2022-07-21T09:10:36;12.00;;;10.13;;
22965;SDS011;11649;48.090;9.754;2022-07-21T09:13:04;11.55;;;10.30;;
22965;SDS011;11649;48.090;9.754;2022-07-21T09:15:33;10.85;;;9.07;;
22965;SDS011;11649;48.090;9.754;2022-07-21T09:18:05;11.43;;;9.40;;
22965;SDS011;11649;48.090;9.754;2022-07-21T09:20:37;13.27;;;10.90;;
22965;SDS011;11649;48.090;9.754;2022-07-21T09:23:18;10.98;;;9.88;;
22965;SDS011;11649;48.090;9.754;2022-07-21T09:25:55;13.52;;;10.82;;
22965;SDS011;11649;48.090;9.754;2022-07-21T09:28:26;11.32;;;9.80;;
22965;SDS011;11649;48.090;9.754;2022-07-21T09:30:58;10.55;;;9.45;;
22965;SDS011;11649;48.090;9.754;2022-07-21T09:33:35;9.43;;;8.48;;
22965;SDS011;11649;48.090;9.754;2022-07-21T09:36:06;10.93;;;9.82;;
22965;SDS011;11649;48.090;9.754;2022-07-21T09:38:36;10.10;;;9.00;;
22965;SDS011;11649;48.090;9.754;2022-07-21T09:41:12;10.60;;;9.50;;
22965;SDS011;11649;48.090;9.754;2022-07-21T09:43:44;10.68;;;8.73;;
22965;SDS011;11649;48.090;9.754;2022-07-21T09:46:15;10.32;;;8.50;;
22965;SDS011;11649;48.090;9.754;2022-07-21T09:48:51;8.93;;;8.02;;
22965;SDS011;11649;48.090;9.754;2022-07-21T09:51:39;9.40;;;8.38;;
22965;SDS011;11649;48.090;9.754;2022-07-21T09:54:08;16.85;;;9.35;;
22965;SDS011;11649;48.090;9.754;2022-07-21T09:56:38;9.38;;;8.38;;
22965;SDS011;11649;48.090;9.754;2022-07-21T09:59:10;9.70;;;8.15;;
22965;SDS011;11649;48.090;9.754;2022-07-21T10:01:38;7.95;;;7.15;;
22965;SDS011;11649;48.090;9.754;2022-07-21T10:04:06;8.57;;;7.25;;
22965;SDS011;11649;48.090;9.754;2022-07-21T10:06:34;7.85;;;6.93;;
22965;SDS011;11649;48.090;9.754;2022-07-21T10:09:04;8.57;;;7.68;;
22965;SDS011;11649;48.090;9.754;2022-07-21T10:11:38;10.45;;;7.57;;
22965;SDS011;11649;48.090;9.754;2022-07-21T10:14:08;10.18;;;7.90;;
22965;SDS011;11649;48.090;9.754;2022-07-21T10:16:36;8.77;;;7.28;;
22965;SDS011;11649;48.090;9.754;2022-07-21T10:22:18;8.45;;;7.13;;
22965;SDS011;11649;48.090;9.754;2022-07-21T10:24:51;9.13;;;7.45;;
22965;SDS011;11649;48.090;9.754;2022-07-21T10:27:19;8.23;;;7.40;;
22965;SDS011;11649;48.090;9.754;2022-07-21T10:30:06;8.68;;;7.43;;
22965;SDS011;11649;48.090;9.754;2022-07-21T10:32:35;8.35;;;7.40;;
22965;SDS011;11649;48.090;9.754;2022-07-21T10:37:51;8.40;;;6.60;;
22965;SDS011;11649;48.090;9.754;2022-07-21T10:42:46;8.18;;;6.35;;
22965;SDS011;11649;48.090;9.754;2022-07-21T10:45:33;8.68;;;7.18;;
22965;SDS011;11649;48.090;9.754;2022-07-21T10:48:00;7.38;;;6.68;;
22965;SDS011;11649;48.090;9.754;2022-07-21T10:50:36;10.48;;;7.30;;
22965;SDS011;11649;48.090;9.754;2022-07-21T10:53:05;7.53;;;6.80;;
22965;SDS011;11649;48.090;9.754;2022-07-21T10:55:48;8.30;;;7.40;;
22965;SDS011;11649;48.090;9.754;2022-07-21T10:58:24;10.02;;;6.85;;
22965;SDS011;11649;48.090;9.754;2022-07-21T11:03:37;7.63;;;6.90;;
22965;SDS011;11649;48.090;9.754;2022-07-21T11:08:36;8.00;;;7.15;;
22965;SDS011;11649;48.090;9.754;2022-07-21T11:11:13;8.57;;;7.13;;
22965;SDS011;11649;48.090;9.754;2022-07-21T11:22:12;7.18;;;6.47;;
22965;SDS011;11649;48.090;9.754;2022-07-21T11:24:40;7.55;;;6.82;;
22965;SDS011;11649;48.090;9.754;2022-07-21T11:27:13;9.55;;;7.15;;
22965;SDS011;11649;48.090;9.754;2022-07-21T11:29:43;7.55;;;6.40;;
22965;SDS011;11649;48.090;9.754;2022-07-21T11:32:11;8.10;;;6.97;;
22965;SDS011;11649;48.090;9.754;2022-07-21T11:34:40;8.63;;;7.07;;
22965;SDS011;11649;48.090;9.754;2022-07-21T11:37:10;8.60;;;7.05;;
22965;SDS011;11649;48.090;9.754;2022-07-21T11:39:59;9.02;;;6.95;;
22965;SDS011;11649;48.090;9.754;2022-07-21T11:42:27;10.75;;;7.32;;
22965;SDS011;11649;48.090;9.754;2022-07-21T11:44:56;7.75;;;6.68;;
22965;SDS011;11649;48.090;9.754;2022-07-21T11:47:24;6.95;;;6.25;;
22965;SDS011;11649;48.090;9.754;2022-07-21T11:49:54;7.72;;;6.80;;
22965;SDS011;11649;48.090;9.754;2022-07-21T11:52:29;7.50;;;6.65;;
22965;SDS011;11649;48.090;9.754;2022-07-21T11:54:58;6.88;;;6.28;;
22965;SDS011;11649;48.090;9.754;2022-07-21T11:57:27;6.78;;;6.05;;
22965;SDS011;11649;48.090;9.754;2022-07-21T11:59:54;8.05;;;6.35;;
22965;SDS011;11649;48.090;9.754;2022-07-21T12:02:24;8.35;;;6.60;;
22965;SDS011;11649;48.090;9.754;2022-07-21T12:04:57;11.98;;;7.38;;
22965;SDS011;11649;48.090;9.754;2022-07-21T12:07:34;8.82;;;6.20;;
22965;SDS011;11649;48.090;9.754;2022-07-21T12:12:41;7.45;;;6.47;;
22965;SDS011;11649;48.090;9.754;2022-07-21T12:15:17;7.05;;;6.18;;
22965;SDS011;11649;48.090;9.754;2022-07-21T12:18:02;7.00;;;6.18;;
22965;SDS011;11649;48.090;9.754;2022-07-21T12:20:35;8.77;;;6.68;;
22965;SDS011;11649;48.090;9.754;2022-07-21T12:25:46;7.97;;;6.40;;
22965;SDS011;11649;48.090;9.754;2022-07-21T12:28:20;11.70;;;6.35;;
22965;SDS011;11649;48.090;9.754;2022-07-21T12:30:49;8.27;;;6.97;;
22965;SDS011;11649;48.090;9.754;2022-07-21T12:33:17;7.30;;;6.47;;
22965;SDS011;11649;48.090;9.754;2022-07-21T12:36:00;6.80;;;6.10;;
22965;SDS011;11649;48.090;9.754;2022-07-21T12:38:40;8.02;;;6.10;;
22965;SDS011;11649;48.090;9.754;2022-07-21T12:41:09;7.97;;;6.38;;
22965;SDS011;11649;48.090;9.754;2022-07-21T12:43:55;10.68;;;6.55;;
22965;SDS011;11649;48.090;9.754;2022-07-21T12:46:30;9.00;;;6.70;;
22965;SDS011;11649;48.090;9.754;2022-07-21T12:49:09;7.47;;;6.30;;
22965;SDS011;11649;48.090;9.754;2022-07-21T12:51:38;8.20;;;6.22;;
22965;SDS011;11649;48.090;9.754;2022-07-21T12:54:08;7.15;;;5.82;;
22965;SDS011;11649;48.090;9.754;2022-07-21T12:56:35;7.82;;;6.10;;
22965;SDS011;11649;48.090;9.754;2022-07-21T12:59:03;8.45;;;6.00;;
22965;SDS011;11649;48.090;9.754;2022-07-21T13:01:30;7.97;;;5.90;;
22965;SDS011;11649;48.090;9.754;2022-07-21T13:04:03;10.15;;;6.22;;
22965;SDS011;11649;48.090;9.754;2022-07-21T13:06:30;7.68;;;6.35;;
22965;SDS011;11649;48.090;9.754;2022-07-21T13:08:58;8.30;;;5.97;;
22965;SDS011;11649;48.090;9.754;2022-07-21T13:11:25;6.40;;;5.57;;
22965;SDS011;11649;48.090;9.754;2022-07-21T13:13:52;9.90;;;5.68;;
22965;SDS011;11649;48.090;9.754;2022-07-21T13:16:19;7.53;;;5.72;;
22965;SDS011;11649;48.090;9.754;2022-07-21T13:18:49;10.07;;;6.07;;
22965;SDS011;11649;48.090;9.754;2022-07-21T13:21:18;6.18;;;5.30;;
22965;SDS011;11649;48.090;9.754;2022-07-21T13:23:45;5.90;;;5.03;;
22965;SDS011;11649;48.090;9.754;2022-07-21T13:26:12;6.35;;;5.72;;
22965;SDS011;11649;48.090;9.754;2022-07-21T13:28:38;6.20;;;5.60;;
22965;SDS011;11649;48.090;9.754;2022-07-21T13:31:06;7.55;;;5.80;;
22965;SDS011;11649;48.090;9.754;2022-07-21T13:33:34;5.90;;;5.30;;
22965;SDS011;11649;48.090;9.754;2022-07-21T13:36:03;7.28;;;5.32;;
22965;SDS011;11649;48.090;9.754;2022-07-21T13:38:32;8.43;;;6.13;;
22965;SDS011;11649;48.090;9.754;2022-07-21T13:40:59;7.70;;;5.00;;
22965;SDS011;11649;48.090;9.754;2022-07-21T13:43:46;5.75;;;5.20;;
22965;SDS011;11649;48.090;9.754;2022-07-21T13:46:14;5.65;;;4.90;;
22965;SDS011;11649;48.090;9.754;2022-07-21T13:48:41;5.72;;;5.22;;
22965;SDS011;11649;48.090;9.754;2022-07-21T13:51:13;6.53;;;4.85;;
22965;SDS011;11649;48.090;9.754;2022-07-21T13:53:42;6.95;;;5.45;;
22965;SDS011;11649;48.090;9.754;2022-07-21T13:56:10;6.55;;;5.10;;
22965;SDS011;11649;48.090;9.754;2022-07-21T13:58:37;4.80;;;4.40;;
22965;SDS011;11649;48.090;9.754;2022-07-21T14:01:05;5.55;;;4.78;;
22965;SDS011;11649;48.090;9.754;2022-07-21T14:03:34;6.72;;;5.07;;
22965;SDS011;11649;48.090;9.754;2022-07-21T14:06:02;6.53;;;5.22;;
22965;SDS011;11649;48.090;9.754;2022-07-21T14:08:29;6.47;;;5.32;;
22965;SDS011;11649;48.090;9.754;2022-07-21T14:10:56;5.70;;;5.10;;
22965;SDS011;11649;48.090;9.754;2022-07-21T14:13:23;5.95;;;4.97;;
22965;SDS011;11649;48.090;9.754;2022-07-21T14:15:49;5.38;;;4.85;;
22965;SDS011;11649;48.090;9.754;2022-07-21T14:18:16;5.88;;;5.28;;
22965;SDS011;11649;48.090;9.754;2022-07-21T14:20:43;6.40;;;5.20;;
22965;SDS011;11649;48.090;9.754;2022-07-21T14:23:10;5.70;;;5.13;;
22965;SDS011;11649;48.090;9.754;2022-07-21T14:25:37;6.15;;;5.05;;
22965;SDS011;11649;48.090;9.754;2022-07-21T14:28:04;6.03;;;5.10;;
22965;SDS011;11649;48.090;9.754;2022-07-21T14:30:31;7.22;;;5.65;;
22965;SDS011;11649;48.090;9.754;2022-07-21T14:32:58;5.20;;;4.80;;
22965;SDS011;11649;48.090;9.754;2022-07-21T14:35:25;6.13;;;5.10;;
22965;SDS011;11649;48.090;9.754;2022-07-21T14:37:53;7.25;;;5.50;;
22965;SDS011;11649;48.090;9.754;2022-07-21T14:40:20;7.10;;;5.60;;
22965;SDS011;11649;48.090;9.754;2022-07-21T14:42:48;6.47;;;5.30;;
22965;SDS011;11649;48.090;9.754;2022-07-21T14:45:18;6.45;;;4.90;;
22965;SDS011;11649;48.090;9.754;2022-07-21T14:47:52;6.40;;;5.03;;
22965;SDS011;11649;48.090;9.754;2022-07-21T14:50:20;6.63;;;5.28;;
22965;SDS011;11649;48.090;9.754;2022-07-21T14:52:53;7.38;;;4.93;;
22965;SDS011;11649;48.090;9.754;2022-07-21T14:55:21;6.85;;;5.40;;
22965;SDS011;11649;48.090;9.754;2022-07-21T14:57:51;5.75;;;4.90;;
22965;SDS011;11649;48.090;9.754;2022-07-21T15:00:18;5.45;;;4.95;;
22965;SDS011;11649;48.090;9.754;2022-07-21T15:02:45;6.40;;;5.10;;
22965;SDS011;11649;48.090;9.754;2022-07-21T15:05:12;7.57;;;5.50;;
22965;SDS011;11649;48.090;9.754;2022-07-21T15:07:39;5.85;;;5.25;;
22965;SDS011;11649;48.090;9.754;2022-07-21T15:10:06;7.35;;;5.88;;